sensor_id;sensor_type;location;lat;lon;timestamp;P1;durP1;ratioP1;P2;durP2;ratioP2
15114;SDS011;7658;51.456;7.622;2024-02-26T00:02:23;5.50;;;5.10;;
15114;SDS011;7658;51.456;7.622;2024-02-26T00:04:49;6.60;;;5.70;;
15114;SDS011;7658;51.456;7.622;2024-02-26T00:07:15;5.80;;;5.40;;
15114;SDS011;7658;51.456;7.622;2024-02-26T00:09:41;5.70;;;5.30;;
15114;SDS011;7658;51.456;7.622;2024-02-26T00:12:07;6.07;;;5.50;;
15114;SDS011;7658;51.456;7.622;2024-02-26T00:14:33;5.67;;;5.17;;
15114;SDS011;7658;51.456;7.622;2024-02-26T00:16:59;6.20;;;5.70;;
15114;SDS011;7658;51.456;7.622;2024-02-26T00:19:25;5.67;;;5.27;;
15114;SDS011;7658;51.456;7.622;2024-02-26T00:21:51;6.40;;;5.50;;
15114;SDS011;7658;51.456;7.622;2024-02-26T00:24:18;6.07;;;5.63;;
15114;SDS011;7658;51.456;7.622;2024-02-26T00:26:44;6.20;;;5.70;;
15114;SDS011;7658;51.456;7.622;2024-02-26T00:29:10;5.97;;;5.50;;
15114;SDS011;7658;51.456;7.622;2024-02-26T00:31:36;6.20;;;5.70;;
15114;SDS011;7658;51.456;7.622;2024-02-26T00:34:05;5.90;;;5.50;;
15114;SDS011;7658;51.456;7.622;2024-02-26T00:36:31;7.50;;;5.97;;
15114;SDS011;7658;51.456;7.622;2024-02-26T00:38:57;5.30;;;5.00;;
15114;SDS011;7658;51.456;7.622;2024-02-26T00:41:23;6.17;;;5.67;;
15114;SDS011;7658;51.456;7.622;2024-02-26T00:43:48;5.87;;;5.40;;
15114;SDS011;7658;51.456;7.622;2024-02-26T00:46:14;5.97;;;5.50;;
15114;SDS011;7658;51.456;7.622;2024-02-26T00:48:40;5.97;;;5.23;;
15114;SDS011;7658;51.456;7.622;2024-02-26T00:51:06;7.07;;;5.23;;
15114;SDS011;7658;51.456;7.622;2024-02-26T00:53:34;5.77;;;5.27;;
15114;SDS011;7658;51.456;7.622;2024-02-26T00:55:59;5.60;;;5.20;;
15114;SDS011;7658;51.456;7.622;2024-02-26T00:58:26;5.87;;;5.23;;
15114;SDS011;7658;51.456;7.622;2024-02-26T01:00:52;5.77;;;5.20;;
15114;SDS011;7658;51.456;7.622;2024-02-26T01:03:18;5.60;;;5.10;;
15114;SDS011;7658;51.456;7.622;2024-02-26T01:05:44;5.33;;;4.93;;
15114;SDS011;7658;51.456;7.622;2024-02-26T01:08:10;5.00;;;4.70;;
15114;SDS011;7658;51.456;7.622;2024-02-26T01:10:36;5.87;;;5.37;;
15114;SDS011;7658;51.456;7.622;2024-02-26T01:13:02;5.17;;;4.77;;
15114;SDS011;7658;51.456;7.622;2024-02-26T01:15:28;6.30;;;4.97;;
15114;SDS011;7658;51.456;7.622;2024-02-26T01:17:53;5.40;;;5.00;;
15114;SDS011;7658;51.456;7.622;2024-02-26T01:20:19;5.17;;;4.80;;
15114;SDS011;7658;51.456;7.622;2024-02-26T01:22:45;5.10;;;4.60;;
15114;SDS011;7658;51.456;7.622;2024-02-26T01:25:12;5.53;;;5.13;;
15114;SDS011;7658;51.456;7.622;2024-02-26T01:27:38;5.40;;;5.00;;
15114;SDS011;7658;51.456;7.622;2024-02-26T01:30:05;5.03;;;4.73;;
15114;SDS011;7658;51.456;7.622;2024-02-26T01:32:31;5.50;;;5.10;;
15114;SDS011;7658;51.456;7.622;2024-02-26T01:34:57;5.90;;;5.07;;
15114;SDS011;7658;51.456;7.622;2024-02-26T01:37:23;5.40;;;5.10;;
15114;SDS011;7658;51.456;7.622;2024-02-26T01:39:49;5.90;;;5.40;;
15114;SDS011;7658;51.456;7.622;2024-02-26T01:42:15;5.63;;;5.10;;
15114;SDS011;7658;51.456;7.622;2024-02-26T01:44:40;5.20;;;4.90;;
15114;SDS011;7658;51.456;7.622;2024-02-26T01:47:07;5.90;;;5.40;;
15114;SDS011;7658;51.456;7.622;2024-02-26T01:49:36;5.40;;;5.00;;
15114;SDS011;7658;51.456;7.622;2024-02-26T01:52:02;5.33;;;4.90;;
15114;SDS011;7658;51.456;7.622;2024-02-26T01:54:30;5.60;;;5.20;;
15114;SDS011;7658;51.456;7.622;2024-02-26T01:56:57;6.10;;;5.50;;
15114;SDS011;7658;51.456;7.622;2024-02-26T01:59:23;6.07;;;5.47;;
15114;SDS011;7658;51.456;7.622;2024-02-26T02:01:52;5.20;;;4.70;;
15114;SDS011;7658;51.456;7.622;2024-02-26T02:04:20;5.30;;;4.80;;
15114;SDS011;7658;51.456;7.622;2024-02-26T02:06:48;5.33;;;4.87;;
15114;SDS011;7658;51.456;7.622;2024-02-26T02:09:14;5.30;;;5.00;;
15114;SDS011;7658;51.456;7.622;2024-02-26T02:11:40;5.40;;;4.90;;
15114;SDS011;7658;51.456;7.622;2024-02-26T02:14:06;5.47;;;5.07;;
15114;SDS011;7658;51.456;7.622;2024-02-26T02:16:32;5.57;;;5.07;;
15114;SDS011;7658;51.456;7.622;2024-02-26T02:18:58;5.20;;;4.90;;
15114;SDS011;7658;51.456;7.622;2024-02-26T02:21:24;5.13;;;4.83;;
15114;SDS011;7658;51.456;7.622;2024-02-26T02:23:50;5.50;;;5.10;;
15114;SDS011;7658;51.456;7.622;2024-02-26T02:26:16;5.70;;;5.30;;
15114;SDS011;7658;51.456;7.622;2024-02-26T02:28:42;5.53;;;5.03;;
15114;SDS011;7658;51.456;7.622;2024-02-26T02:31:09;5.27;;;4.90;;
15114;SDS011;7658;51.456;7.622;2024-02-26T02:33:35;5.97;;;5.37;;
15114;SDS011;7658;51.456;7.622;2024-02-26T02:36:02;5.10;;;4.80;;
15114;SDS011;7658;51.456;7.622;2024-02-26T02:38:28;5.63;;;5.13;;
15114;SDS011;7658;51.456;7.622;2024-02-26T02:40:55;5.47;;;5.07;;
15114;SDS011;7658;51.456;7.622;2024-02-26T02:43:21;5.60;;;5.20;;
15114;SDS011;7658;51.456;7.622;2024-02-26T02:45:47;5.50;;;5.07;;
15114;SDS011;7658;51.456;7.622;2024-02-26T02:48:13;5.73;;;5.33;;
15114;SDS011;7658;51.456;7.622;2024-02-26T02:50:38;5.83;;;5.43;;
15114;SDS011;7658;51.456;7.622;2024-02-26T02:53:04;5.80;;;5.30;;
15114;SDS011;7658;51.456;7.622;2024-02-26T02:55:30;5.20;;;4.83;;
15114;SDS011;7658;51.456;7.622;2024-02-26T02:57:56;7.27;;;5.50;;
15114;SDS011;7658;51.456;7.622;2024-02-26T03:00:21;5.53;;;5.13;;
15114;SDS011;7658;51.456;7.622;2024-02-26T03:02:50;5.50;;;5.10;;
15114;SDS011;7658;51.456;7.622;2024-02-26T03:05:16;5.70;;;5.30;;
15114;SDS011;7658;51.456;7.622;2024-02-26T03:07:42;5.30;;;5.00;;
15114;SDS011;7658;51.456;7.622;2024-02-26T03:10:07;5.87;;;5.37;;
15114;SDS011;7658;51.456;7.622;2024-02-26T03:12:33;5.97;;;5.47;;
15114;SDS011;7658;51.456;7.622;2024-02-26T03:15:00;5.80;;;5.33;;
15114;SDS011;7658;51.456;7.622;2024-02-26T03:17:29;7.47;;;5.47;;
15114;SDS011;7658;51.456;7.622;2024-02-26T03:19:55;6.00;;;5.50;;
15114;SDS011;7658;51.456;7.622;2024-02-26T03:22:21;6.07;;;5.47;;
15114;SDS011;7658;51.456;7.622;2024-02-26T03:24:47;5.87;;;5.37;;
15114;SDS011;7658;51.456;7.622;2024-02-26T03:27:13;6.20;;;5.70;;
15114;SDS011;7658;51.456;7.622;2024-02-26T03:29:39;5.60;;;5.20;;
15114;SDS011;7658;51.456;7.622;2024-02-26T03:32:05;5.70;;;5.30;;
15114;SDS011;7658;51.456;7.622;2024-02-26T03:34:32;6.20;;;5.67;;
15114;SDS011;7658;51.456;7.622;2024-02-26T03:37:01;6.10;;;5.67;;
15114;SDS011;7658;51.456;7.622;2024-02-26T03:39:27;6.67;;;5.40;;
15114;SDS011;7658;51.456;7.622;2024-02-26T03:41:52;6.10;;;5.50;;
15114;SDS011;7658;51.456;7.622;2024-02-26T03:44:19;6.10;;;5.60;;
15114;SDS011;7658;51.456;7.622;2024-02-26T03:46:45;6.33;;;5.87;;
15114;SDS011;7658;51.456;7.622;2024-02-26T03:49:11;6.57;;;6.07;;
15114;SDS011;7658;51.456;7.622;2024-02-26T03:51:37;6.17;;;5.70;;
15114;SDS011;7658;51.456;7.622;2024-02-26T03:54:03;6.33;;;5.73;;
15114;SDS011;7658;51.456;7.622;2024-02-26T03:56:29;6.13;;;5.63;;
15114;SDS011;7658;51.456;7.622;2024-02-26T03:58:55;6.23;;;5.77;;
15114;SDS011;7658;51.456;7.622;2024-02-26T04:01:21;12.23;;;6.13;;
15114;SDS011;7658;51.456;7.622;2024-02-26T04:03:47;7.27;;;6.20;;
15114;SDS011;7658;51.456;7.622;2024-02-26T04:06:13;6.67;;;6.07;;
15114;SDS011;7658;51.456;7.622;2024-02-26T04:08:44;6.07;;;5.57;;
15114;SDS011;7658;51.456;7.622;2024-02-26T04:11:10;6.57;;;5.90;;
15114;SDS011;7658;51.456;7.622;2024-02-26T04:13:36;6.27;;;5.77;;
15114;SDS011;7658;51.456;7.622;2024-02-26T04:16:05;6.83;;;6.23;;
15114;SDS011;7658;51.456;7.622;2024-02-26T04:18:34;6.50;;;6.00;;
15114;SDS011;7658;51.456;7.622;2024-02-26T04:21:00;6.10;;;5.60;;
15114;SDS011;7658;51.456;7.622;2024-02-26T04:23:25;5.97;;;5.57;;
15114;SDS011;7658;51.456;7.622;2024-02-26T04:25:51;8.47;;;5.93;;
15114;SDS011;7658;51.456;7.622;2024-02-26T04:28:18;6.37;;;5.80;;
15114;SDS011;7658;51.456;7.622;2024-02-26T04:30:45;5.80;;;5.40;;
15114;SDS011;7658;51.456;7.622;2024-02-26T04:33:13;6.30;;;5.70;;
15114;SDS011;7658;51.456;7.622;2024-02-26T04:35:39;6.77;;;6.20;;
15114;SDS011;7658;51.456;7.622;2024-02-26T04:38:04;6.70;;;6.10;;
15114;SDS011;7658;51.456;7.622;2024-02-26T04:40:30;6.60;;;6.10;;
15114;SDS011;7658;51.456;7.622;2024-02-26T04:42:56;6.00;;;5.50;;
15114;SDS011;7658;51.456;7.622;2024-02-26T04:45:22;6.40;;;5.90;;
15114;SDS011;7658;51.456;7.622;2024-02-26T04:47:48;6.20;;;5.80;;
15114;SDS011;7658;51.456;7.622;2024-02-26T04:50:14;6.97;;;6.37;;
15114;SDS011;7658;51.456;7.622;2024-02-26T04:52:39;6.53;;;5.90;;
15114;SDS011;7658;51.456;7.622;2024-02-26T04:55:06;6.27;;;5.87;;
15114;SDS011;7658;51.456;7.622;2024-02-26T04:57:32;6.53;;;6.00;;
15114;SDS011;7658;51.456;7.622;2024-02-26T04:59:57;6.37;;;5.87;;
15114;SDS011;7658;51.456;7.622;2024-02-26T05:02:24;6.57;;;6.10;;
15114;SDS011;7658;51.456;7.622;2024-02-26T05:04:49;6.53;;;6.03;;
15114;SDS011;7658;51.456;7.622;2024-02-26T05:07:15;6.60;;;6.13;;
15114;SDS011;7658;51.456;7.622;2024-02-26T05:09:44;6.73;;;6.17;;
15114;SDS011;7658;51.456;7.622;2024-02-26T05:12:10;6.60;;;6.10;;
15114;SDS011;7658;51.456;7.622;2024-02-26T05:14:36;6.70;;;6.10;;
15114;SDS011;7658;51.456;7.622;2024-02-26T05:17:01;7.20;;;5.97;;
15114;SDS011;7658;51.456;7.622;2024-02-26T05:19:27;6.97;;;6.27;;
15114;SDS011;7658;51.456;7.622;2024-02-26T05:21:53;6.67;;;6.10;;
15114;SDS011;7658;51.456;7.622;2024-02-26T05:24:19;7.00;;;6.47;;
15114;SDS011;7658;51.456;7.622;2024-02-26T05:26:47;6.63;;;6.13;;
15114;SDS011;7658;51.456;7.622;2024-02-26T05:29:13;7.80;;;6.73;;
15114;SDS011;7658;51.456;7.622;2024-02-26T05:31:39;7.27;;;6.67;;
15114;SDS011;7658;51.456;7.622;2024-02-26T05:34:07;7.47;;;6.77;;
15114;SDS011;7658;51.456;7.622;2024-02-26T05:36:33;8.07;;;6.53;;
15114;SDS011;7658;51.456;7.622;2024-02-26T05:39:01;6.77;;;6.27;;
15114;SDS011;7658;51.456;7.622;2024-02-26T05:41:28;7.33;;;6.37;;
15114;SDS011;7658;51.456;7.622;2024-02-26T05:43:54;8.70;;;6.73;;
15114;SDS011;7658;51.456;7.622;2024-02-26T05:46:20;7.50;;;6.70;;
15114;SDS011;7658;51.456;7.622;2024-02-26T05:48:47;6.83;;;6.33;;
15114;SDS011;7658;51.456;7.622;2024-02-26T05:51:15;7.07;;;6.37;;
15114;SDS011;7658;51.456;7.622;2024-02-26T05:53:41;6.63;;;6.13;;
15114;SDS011;7658;51.456;7.622;2024-02-26T05:56:07;6.63;;;6.07;;
15114;SDS011;7658;51.456;7.622;2024-02-26T05:58:32;6.83;;;6.23;;
15114;SDS011;7658;51.456;7.622;2024-02-26T06:00:58;6.40;;;5.90;;
15114;SDS011;7658;51.456;7.622;2024-02-26T06:03:25;6.63;;;5.97;;
15114;SDS011;7658;51.456;7.622;2024-02-26T06:05:51;7.00;;;6.40;;
15114;SDS011;7658;51.456;7.622;2024-02-26T06:08:17;7.47;;;6.30;;
15114;SDS011;7658;51.456;7.622;2024-02-26T06:10:43;10.03;;;7.03;;
15114;SDS011;7658;51.456;7.622;2024-02-26T06:13:09;7.03;;;6.43;;
15114;SDS011;7658;51.456;7.622;2024-02-26T06:15:34;6.83;;;6.23;;
15114;SDS011;7658;51.456;7.622;2024-02-26T06:18:00;6.60;;;6.10;;
15114;SDS011;7658;51.456;7.622;2024-02-26T06:20:26;6.47;;;5.97;;
15114;SDS011;7658;51.456;7.622;2024-02-26T06:22:52;6.13;;;5.73;;
15114;SDS011;7658;51.456;7.622;2024-02-26T06:25:18;6.57;;;5.90;;
15114;SDS011;7658;51.456;7.622;2024-02-26T06:27:43;6.57;;;6.07;;
15114;SDS011;7658;51.456;7.622;2024-02-26T06:30:09;6.80;;;6.20;;
15114;SDS011;7658;51.456;7.622;2024-02-26T06:32:36;7.00;;;6.40;;
15114;SDS011;7658;51.456;7.622;2024-02-26T06:35:03;7.33;;;6.73;;
15114;SDS011;7658;51.456;7.622;2024-02-26T06:37:34;6.90;;;6.30;;
15114;SDS011;7658;51.456;7.622;2024-02-26T06:40:00;7.30;;;6.70;;
15114;SDS011;7658;51.456;7.622;2024-02-26T06:42:29;7.63;;;6.93;;
15114;SDS011;7658;51.456;7.622;2024-02-26T06:44:55;7.43;;;6.83;;
15114;SDS011;7658;51.456;7.622;2024-02-26T06:47:21;7.27;;;6.57;;
15114;SDS011;7658;51.456;7.622;2024-02-26T06:49:47;7.40;;;6.70;;
15114;SDS011;7658;51.456;7.622;2024-02-26T06:52:12;7.53;;;6.83;;
15114;SDS011;7658;51.456;7.622;2024-02-26T06:54:38;7.10;;;6.50;;
15114;SDS011;7658;51.456;7.622;2024-02-26T06:57:04;7.43;;;6.67;;
15114;SDS011;7658;51.456;7.622;2024-02-26T06:59:30;6.67;;;6.10;;
15114;SDS011;7658;51.456;7.622;2024-02-26T07:01:55;7.30;;;6.60;;
15114;SDS011;7658;51.456;7.622;2024-02-26T07:04:21;7.20;;;6.70;;
15114;SDS011;7658;51.456;7.622;2024-02-26T07:06:47;7.77;;;7.17;;
15114;SDS011;7658;51.456;7.622;2024-02-26T07:09:13;7.53;;;6.83;;
15114;SDS011;7658;51.456;7.622;2024-02-26T07:11:39;7.93;;;7.23;;
15114;SDS011;7658;51.456;7.622;2024-02-26T07:14:08;7.50;;;6.80;;
15114;SDS011;7658;51.456;7.622;2024-02-26T07:16:35;7.93;;;7.13;;
15114;SDS011;7658;51.456;7.622;2024-02-26T07:19:00;7.57;;;6.87;;
15114;SDS011;7658;51.456;7.622;2024-02-26T07:21:26;7.67;;;6.97;;
15114;SDS011;7658;51.456;7.622;2024-02-26T07:23:52;8.67;;;7.20;;
15114;SDS011;7658;51.456;7.622;2024-02-26T07:26:18;7.70;;;7.00;;
15114;SDS011;7658;51.456;7.622;2024-02-26T07:28:44;9.17;;;7.60;;
15114;SDS011;7658;51.456;7.622;2024-02-26T07:31:10;8.27;;;7.57;;
15114;SDS011;7658;51.456;7.622;2024-02-26T07:33:36;7.90;;;7.10;;
15114;SDS011;7658;51.456;7.622;2024-02-26T07:36:02;8.63;;;6.93;;
15114;SDS011;7658;51.456;7.622;2024-02-26T07:38:28;8.13;;;7.30;;
15114;SDS011;7658;51.456;7.622;2024-02-26T07:40:54;8.50;;;7.70;;
15114;SDS011;7658;51.456;7.622;2024-02-26T07:43:21;8.20;;;7.40;;
15114;SDS011;7658;51.456;7.622;2024-02-26T07:45:47;8.67;;;7.40;;
15114;SDS011;7658;51.456;7.622;2024-02-26T07:48:13;8.73;;;7.83;;
15114;SDS011;7658;51.456;7.622;2024-02-26T07:50:39;10.20;;;8.07;;
15114;SDS011;7658;51.456;7.622;2024-02-26T07:53:05;10.50;;;7.67;;
15114;SDS011;7658;51.456;7.622;2024-02-26T07:55:31;8.20;;;7.40;;
15114;SDS011;7658;51.456;7.622;2024-02-26T07:57:57;8.50;;;7.50;;
15114;SDS011;7658;51.456;7.622;2024-02-26T08:00:23;8.50;;;7.70;;
15114;SDS011;7658;51.456;7.622;2024-02-26T08:02:48;9.37;;;7.90;;
15114;SDS011;7658;51.456;7.622;2024-02-26T08:05:14;8.07;;;7.30;;
15114;SDS011;7658;51.456;7.622;2024-02-26T08:07:40;8.10;;;7.30;;
15114;SDS011;7658;51.456;7.622;2024-02-26T08:10:06;8.37;;;7.67;;
15114;SDS011;7658;51.456;7.622;2024-02-26T08:12:32;8.80;;;7.90;;
15114;SDS011;7658;51.456;7.622;2024-02-26T08:14:58;8.47;;;7.47;;
15114;SDS011;7658;51.456;7.622;2024-02-26T08:17:25;8.20;;;7.50;;
15114;SDS011;7658;51.456;7.622;2024-02-26T08:19:52;9.07;;;7.73;;
15114;SDS011;7658;51.456;7.622;2024-02-26T08:22:18;8.27;;;7.47;;
15114;SDS011;7658;51.456;7.622;2024-02-26T08:24:44;8.97;;;8.17;;
15114;SDS011;7658;51.456;7.622;2024-02-26T08:27:10;9.00;;;8.20;;
15114;SDS011;7658;51.456;7.622;2024-02-26T08:29:35;8.80;;;8.00;;
15114;SDS011;7658;51.456;7.622;2024-02-26T08:32:01;8.20;;;7.43;;
15114;SDS011;7658;51.456;7.622;2024-02-26T08:34:27;9.17;;;8.27;;
15114;SDS011;7658;51.456;7.622;2024-02-26T08:36:53;8.57;;;7.43;;
15114;SDS011;7658;51.456;7.622;2024-02-26T08:39:19;8.67;;;7.77;;
15114;SDS011;7658;51.456;7.622;2024-02-26T08:41:45;9.50;;;8.50;;
15114;SDS011;7658;51.456;7.622;2024-02-26T08:44:11;8.67;;;7.83;;
15114;SDS011;7658;51.456;7.622;2024-02-26T08:46:37;9.10;;;8.20;;
15114;SDS011;7658;51.456;7.622;2024-02-26T08:49:03;8.73;;;7.87;;
15114;SDS011;7658;51.456;7.622;2024-02-26T08:51:29;9.37;;;8.37;;
15114;SDS011;7658;51.456;7.622;2024-02-26T08:53:55;9.10;;;8.20;;
15114;SDS011;7658;51.456;7.622;2024-02-26T08:56:21;8.20;;;7.40;;
15114;SDS011;7658;51.456;7.622;2024-02-26T08:58:47;8.23;;;7.30;;
15114;SDS011;7658;51.456;7.622;2024-02-26T09:01:18;8.60;;;7.70;;
15114;SDS011;7658;51.456;7.622;2024-02-26T09:03:44;8.07;;;7.37;;
15114;SDS011;7658;51.456;7.622;2024-02-26T09:06:10;8.33;;;7.47;;
15114;SDS011;7658;51.456;7.622;2024-02-26T09:08:40;9.03;;;8.10;;
15114;SDS011;7658;51.456;7.622;2024-02-26T09:11:06;8.33;;;7.53;;
15114;SDS011;7658;51.456;7.622;2024-02-26T09:13:32;9.90;;;8.80;;
15114;SDS011;7658;51.456;7.622;2024-02-26T09:15:57;10.63;;;8.47;;
15114;SDS011;7658;51.456;7.622;2024-02-26T09:18:24;10.03;;;9.03;;
15114;SDS011;7658;51.456;7.622;2024-02-26T09:20:50;10.97;;;8.63;;
15114;SDS011;7658;51.456;7.622;2024-02-26T09:23:16;9.10;;;8.20;;
15114;SDS011;7658;51.456;7.622;2024-02-26T09:25:41;9.23;;;8.40;;
15114;SDS011;7658;51.456;7.622;2024-02-26T09:28:07;10.37;;;8.83;;
15114;SDS011;7658;51.456;7.622;2024-02-26T09:30:33;9.27;;;8.20;;
15114;SDS011;7658;51.456;7.622;2024-02-26T09:32:59;9.57;;;8.57;;
15114;SDS011;7658;51.456;7.622;2024-02-26T09:35:24;10.43;;;9.23;;
15114;SDS011;7658;51.456;7.622;2024-02-26T09:37:51;10.63;;;9.27;;
15114;SDS011;7658;51.456;7.622;2024-02-26T09:40:18;9.90;;;8.90;;
15114;SDS011;7658;51.456;7.622;2024-02-26T09:42:44;9.53;;;8.63;;
15114;SDS011;7658;51.456;7.622;2024-02-26T09:45:18;9.60;;;8.60;;
15114;SDS011;7658;51.456;7.622;2024-02-26T09:47:45;9.30;;;8.40;;
15114;SDS011;7658;51.456;7.622;2024-02-26T09:50:12;9.83;;;8.83;;
15114;SDS011;7658;51.456;7.622;2024-02-26T09:52:41;10.63;;;9.37;;
15114;SDS011;7658;51.456;7.622;2024-02-26T09:55:07;10.07;;;9.13;;
15114;SDS011;7658;51.456;7.622;2024-02-26T09:57:36;10.83;;;9.00;;
15114;SDS011;7658;51.456;7.622;2024-02-26T10:00:03;11.37;;;9.70;;
15114;SDS011;7658;51.456;7.622;2024-02-26T10:02:33;10.13;;;8.93;;
15114;SDS011;7658;51.456;7.622;2024-02-26T10:05:02;14.13;;;10.57;;
15114;SDS011;7658;51.456;7.622;2024-02-26T10:07:33;11.77;;;9.33;;
15114;SDS011;7658;51.456;7.622;2024-02-26T10:10:01;12.70;;;10.23;;
15114;SDS011;7658;51.456;7.622;2024-02-26T10:12:27;14.07;;;10.50;;
15114;SDS011;7658;51.456;7.622;2024-02-26T10:14:54;11.90;;;9.83;;
15114;SDS011;7658;51.456;7.622;2024-02-26T10:17:20;12.27;;;10.17;;
15114;SDS011;7658;51.456;7.622;2024-02-26T10:19:46;13.50;;;10.37;;
15114;SDS011;7658;51.456;7.622;2024-02-26T10:22:12;13.97;;;10.60;;
15114;SDS011;7658;51.456;7.622;2024-02-26T10:24:37;10.37;;;9.27;;
15114;SDS011;7658;51.456;7.622;2024-02-26T10:27:03;15.83;;;11.37;;
15114;SDS011;7658;51.456;7.622;2024-02-26T10:29:30;11.20;;;9.93;;
15114;SDS011;7658;51.456;7.622;2024-02-26T10:31:56;11.67;;;10.13;;
15114;SDS011;7658;51.456;7.622;2024-02-26T10:34:22;15.93;;;10.37;;
15114;SDS011;7658;51.456;7.622;2024-02-26T10:36:49;12.87;;;10.70;;
15114;SDS011;7658;51.456;7.622;2024-02-26T10:39:14;15.37;;;11.17;;
15114;SDS011;7658;51.456;7.622;2024-02-26T10:41:41;13.67;;;11.03;;
15114;SDS011;7658;51.456;7.622;2024-02-26T10:44:11;12.30;;;11.00;;
15114;SDS011;7658;51.456;7.622;2024-02-26T10:46:38;15.63;;;12.33;;
15114;SDS011;7658;51.456;7.622;2024-02-26T10:49:10;14.20;;;12.00;;
15114;SDS011;7658;51.456;7.622;2024-02-26T10:51:45;14.27;;;10.97;;
15114;SDS011;7658;51.456;7.622;2024-02-26T10:54:15;15.90;;;13.07;;
15114;SDS011;7658;51.456;7.622;2024-02-26T10:56:41;15.50;;;12.17;;
15114;SDS011;7658;51.456;7.622;2024-02-26T10:59:11;19.23;;;13.53;;
15114;SDS011;7658;51.456;7.622;2024-02-26T11:01:37;17.70;;;13.00;;
15114;SDS011;7658;51.456;7.622;2024-02-26T11:04:06;21.27;;;15.27;;
15114;SDS011;7658;51.456;7.622;2024-02-26T11:06:33;18.23;;;13.77;;
15114;SDS011;7658;51.456;7.622;2024-02-26T11:09:01;21.03;;;14.60;;
15114;SDS011;7658;51.456;7.622;2024-02-26T11:11:27;18.30;;;13.33;;
15114;SDS011;7658;51.456;7.622;2024-02-26T11:13:55;17.67;;;12.83;;
15114;SDS011;7658;51.456;7.622;2024-02-26T11:16:23;24.07;;;15.17;;
15114;SDS011;7658;51.456;7.622;2024-02-26T11:18:49;21.83;;;14.80;;
15114;SDS011;7658;51.456;7.622;2024-02-26T11:21:20;19.93;;;15.17;;
15114;SDS011;7658;51.456;7.622;2024-02-26T11:24:03;20.37;;;14.50;;
15114;SDS011;7658;51.456;7.622;2024-02-26T11:26:31;18.80;;;13.93;;
15114;SDS011;7658;51.456;7.622;2024-02-26T11:29:05;16.67;;;13.23;;
15114;SDS011;7658;51.456;7.622;2024-02-26T11:31:35;17.43;;;13.37;;
15114;SDS011;7658;51.456;7.622;2024-02-26T11:34:03;19.13;;;12.87;;
15114;SDS011;7658;51.456;7.622;2024-02-26T11:36:29;15.20;;;12.63;;
15114;SDS011;7658;51.456;7.622;2024-02-26T11:38:55;14.00;;;11.73;;
15114;SDS011;7658;51.456;7.622;2024-02-26T11:41:21;19.90;;;14.57;;
15114;SDS011;7658;51.456;7.622;2024-02-26T11:43:58;19.30;;;13.10;;
15114;SDS011;7658;51.456;7.622;2024-02-26T11:46:32;17.40;;;11.97;;
15114;SDS011;7658;51.456;7.622;2024-02-26T11:49:03;13.20;;;10.83;;
15114;SDS011;7658;51.456;7.622;2024-02-26T11:51:52;17.00;;;12.43;;
15114;SDS011;7658;51.456;7.622;2024-02-26T11:54:38;16.40;;;12.33;;
15114;SDS011;7658;51.456;7.622;2024-02-26T12:02:49;14.43;;;9.60;;
15114;SDS011;7658;51.456;7.622;2024-02-26T12:05:23;10.00;;;9.00;;
15114;SDS011;7658;51.456;7.622;2024-02-26T12:07:55;10.87;;;8.90;;
15114;SDS011;7658;51.456;7.622;2024-02-26T12:12:53;11.60;;;9.30;;
15114;SDS011;7658;51.456;7.622;2024-02-26T12:15:22;11.73;;;9.30;;
15114;SDS011;7658;51.456;7.622;2024-02-26T12:17:48;9.83;;;8.83;;
15114;SDS011;7658;51.456;7.622;2024-02-26T12:20:15;10.27;;;8.90;;
15114;SDS011;7658;51.456;7.622;2024-02-26T12:22:45;12.00;;;8.23;;
15114;SDS011;7658;51.456;7.622;2024-02-26T12:25:13;9.87;;;8.70;;
15114;SDS011;7658;51.456;7.622;2024-02-26T12:27:39;9.90;;;8.90;;
15114;SDS011;7658;51.456;7.622;2024-02-26T12:30:05;9.83;;;8.83;;
15114;SDS011;7658;51.456;7.622;2024-02-26T12:32:31;10.70;;;8.77;;
15114;SDS011;7658;51.456;7.622;2024-02-26T12:34:58;10.43;;;9.30;;
15114;SDS011;7658;51.456;7.622;2024-02-26T12:37:25;10.33;;;9.23;;
15114;SDS011;7658;51.456;7.622;2024-02-26T12:39:52;9.60;;;8.60;;
15114;SDS011;7658;51.456;7.622;2024-02-26T12:42:18;11.60;;;9.17;;
15114;SDS011;7658;51.456;7.622;2024-02-26T12:44:46;10.20;;;9.10;;
15114;SDS011;7658;51.456;7.622;2024-02-26T12:47:12;10.80;;;9.70;;
15114;SDS011;7658;51.456;7.622;2024-02-26T12:49:48;14.63;;;10.43;;
15114;SDS011;7658;51.456;7.622;2024-02-26T12:52:14;12.10;;;9.20;;
15114;SDS011;7658;51.456;7.622;2024-02-26T12:54:41;11.00;;;9.83;;
15114;SDS011;7658;51.456;7.622;2024-02-26T12:57:07;12.03;;;10.27;;
15114;SDS011;7658;51.456;7.622;2024-02-26T12:59:34;12.17;;;10.87;;
15114;SDS011;7658;51.456;7.622;2024-02-26T13:02:01;13.27;;;10.73;;
15114;SDS011;7658;51.456;7.622;2024-02-26T13:04:29;11.20;;;10.00;;
15114;SDS011;7658;51.456;7.622;2024-02-26T13:06:56;13.17;;;10.73;;
15114;SDS011;7658;51.456;7.622;2024-02-26T13:09:27;13.73;;;10.77;;
15114;SDS011;7658;51.456;7.622;2024-02-26T13:11:57;13.60;;;10.97;;
15114;SDS011;7658;51.456;7.622;2024-02-26T13:14:22;13.63;;;10.47;;
15114;SDS011;7658;51.456;7.622;2024-02-26T13:16:55;13.73;;;11.20;;
15114;SDS011;7658;51.456;7.622;2024-02-26T13:19:21;12.73;;;10.97;;
15114;SDS011;7658;51.456;7.622;2024-02-26T13:21:47;10.97;;;9.77;;
15114;SDS011;7658;51.456;7.622;2024-02-26T13:24:13;11.23;;;10.03;;
15114;SDS011;7658;51.456;7.622;2024-02-26T13:26:39;11.10;;;9.93;;
15114;SDS011;7658;51.456;7.622;2024-02-26T13:29:05;12.63;;;9.83;;
15114;SDS011;7658;51.456;7.622;2024-02-26T13:31:31;10.87;;;9.57;;
15114;SDS011;7658;51.456;7.622;2024-02-26T13:34:03;10.53;;;9.50;;
15114;SDS011;7658;51.456;7.622;2024-02-26T13:36:29;13.10;;;9.67;;
15114;SDS011;7658;51.456;7.622;2024-02-26T13:38:55;12.97;;;9.23;;
15114;SDS011;7658;51.456;7.622;2024-02-26T13:41:24;11.80;;;9.47;;
15114;SDS011;7658;51.456;7.622;2024-02-26T13:43:50;10.73;;;8.87;;
15114;SDS011;7658;51.456;7.622;2024-02-26T13:46:16;10.43;;;9.33;;
15114;SDS011;7658;51.456;7.622;2024-02-26T13:48:42;11.07;;;9.33;;
15114;SDS011;7658;51.456;7.622;2024-02-26T13:51:08;11.27;;;9.10;;
15114;SDS011;7658;51.456;7.622;2024-02-26T13:53:34;10.07;;;9.07;;
15114;SDS011;7658;51.456;7.622;2024-02-26T13:56:00;9.57;;;8.53;;
15114;SDS011;7658;51.456;7.622;2024-02-26T13:58:29;10.47;;;9.17;;
15114;SDS011;7658;51.456;7.622;2024-02-26T14:00:55;10.43;;;9.33;;
15114;SDS011;7658;51.456;7.622;2024-02-26T14:03:21;9.93;;;8.53;;
15114;SDS011;7658;51.456;7.622;2024-02-26T14:05:47;11.80;;;8.73;;
15114;SDS011;7658;51.456;7.622;2024-02-26T14:08:13;10.27;;;9.23;;
15114;SDS011;7658;51.456;7.622;2024-02-26T14:10:39;10.37;;;9.33;;
15114;SDS011;7658;51.456;7.622;2024-02-26T14:13:05;9.70;;;8.33;;
15114;SDS011;7658;51.456;7.622;2024-02-26T14:15:31;12.30;;;9.23;;
15114;SDS011;7658;51.456;7.622;2024-02-26T14:17:58;11.10;;;9.13;;
15114;SDS011;7658;51.456;7.622;2024-02-26T14:20:25;13.40;;;9.13;;
15114;SDS011;7658;51.456;7.622;2024-02-26T14:22:51;13.30;;;10.17;;
15114;SDS011;7658;51.456;7.622;2024-02-26T14:25:20;13.13;;;10.90;;
15114;SDS011;7658;51.456;7.622;2024-02-26T14:27:47;14.90;;;11.40;;
15114;SDS011;7658;51.456;7.622;2024-02-26T14:30:13;15.73;;;11.47;;
15114;SDS011;7658;51.456;7.622;2024-02-26T14:32:40;15.60;;;11.57;;
15114;SDS011;7658;51.456;7.622;2024-02-26T14:35:06;13.77;;;11.20;;
15114;SDS011;7658;51.456;7.622;2024-02-26T14:37:34;12.30;;;10.77;;
15114;SDS011;7658;51.456;7.622;2024-02-26T14:40:00;14.03;;;10.67;;
15114;SDS011;7658;51.456;7.622;2024-02-26T14:42:28;12.90;;;9.40;;
15114;SDS011;7658;51.456;7.622;2024-02-26T14:44:54;12.13;;;9.43;;
15114;SDS011;7658;51.456;7.622;2024-02-26T14:47:20;10.37;;;9.30;;
15114;SDS011;7658;51.456;7.622;2024-02-26T14:49:46;12.23;;;9.73;;
15114;SDS011;7658;51.456;7.622;2024-02-26T14:52:13;11.00;;;9.80;;
15114;SDS011;7658;51.456;7.622;2024-02-26T14:54:40;9.93;;;8.80;;
15114;SDS011;7658;51.456;7.622;2024-02-26T14:57:06;10.13;;;8.90;;
15114;SDS011;7658;51.456;7.622;2024-02-26T14:59:32;12.53;;;9.20;;
15114;SDS011;7658;51.456;7.622;2024-02-26T15:01:58;9.67;;;8.50;;